This is the latest recevied weather packets stored in our database for station/object SV9TNF-2. If no packets are shown the sender has not sent any weather packets the latest 10 day(s).
| Time | Temp. | Humidity | Pressure | Rain* | Wind** | Luminosity | Snow |
|---|---|---|---|---|---|---|---|
| 1777374080 | 22.78° C | 61% | 1022.7 hPa | 0 mm | 4.92 m/s, 299° | - | - |
| 1777373779 | 22.78° C | 63% | 1022.7 hPa | 0 mm | 4.92 m/s, 278° | - | - |
| 1777373480 | 22.22° C | 61% | 1022.7 hPa | 0 mm | 2.68 m/s, 355° | - | - |
| 1777373179 | 22.78° C | 63% | 1023 hPa | 0 mm | 5.81 m/s, 20° | - | - |
| 1777372879 | 21.67° C | 65% | 1023 hPa | 0 mm | 4.92 m/s, 266° | - | - |
| 1777372579 | 21.67° C | 65% | 1023 hPa | 0 mm | 5.81 m/s, 7° | - | - |
| 1777372279 | 22.22° C | 63% | 1023 hPa | 0 mm | 5.36 m/s, 327° | - | - |
| 1777371979 | 21.67° C | 63% | 1023 hPa | 0 mm | 5.81 m/s, 343° | - | - |
| 1777371679 | 21.11° C | 64% | 1023 hPa | 0 mm | 5.81 m/s, 323° | - | - |
| 1777371379 | 21.11° C | 64% | 1023 hPa | 0 mm | 10.73 m/s, 10° | - | - |
| 1777371078 | 22.78° C | 64% | 1023 hPa | 0 mm | 5.81 m/s, 311° | - | - |
| 1777370778 | 22.22° C | 64% | 1023 hPa | 0 mm | 5.81 m/s, 241° | - | - |
| 1777370478 | 23.33° C | 63% | 1023 hPa | 0 mm | 2.68 m/s, 348° | - | - |
| 1777370179 | 22.22° C | 64% | 1023.4 hPa | 0 mm | 4.92 m/s, 34° | - | - |
| 1777369878 | 22.22° C | 65% | 1023.4 hPa | 0 mm | 3.13 m/s, 359° | - | - |
| 1777369578 | 22.78° C | 64% | 1023.4 hPa | 0 mm | 2.68 m/s, 333° | - | - |
| 1777369278 | 22.78° C | 60% | 1023.4 hPa | 0 mm | 3.13 m/s, 315° | - | - |
| 1777368978 | 22.78° C | 63% | 1023.4 hPa | 0 mm | 4.02 m/s, 318° | - | - |
| 1777368678 | 22.22° C | 63% | 1023.4 hPa | 0 mm | 6.26 m/s, 18° | - | - |
| 1777368378 | 23.33° C | 59% | 1023.4 hPa | 0 mm | 4.02 m/s, 288° | - | - |
| 1777368078 | 24.44° C | 57% | 1023.4 hPa | 0 mm | 3.13 m/s, 338° | - | - |
| 1777367778 | 24.44° C | 57% | 1023.4 hPa | 0 mm | 1.79 m/s, 266° | - | - |
| 1777367477 | 24.44° C | 56% | 1023.4 hPa | 0 mm | 4.47 m/s, 250° | - | - |
| 1777367177 | 24.44° C | 56% | 1023.4 hPa | 0 mm | 4.92 m/s, 265° | - | - |
| 1777366877 | 23.89° C | 57% | 1023.4 hPa | 0 mm | 2.24 m/s, 268° | - | - |
* Rain latest hour (hover to see other rain measurements)
** Current wind speed in m/s (hover to see current wind gust speed)